Terminal Aerodrome Forecast
Issued by NWS Shreveport, LA

Home | Current Version | Previous Version | Text Only | Print | Product List | Glossary On
Versions: 1 2 3 4 5 6 7 8 9 10 11 12 13 14 15
000
FTUS44 KSHV 180535
TAFGGG
TAF
KGGG 180535Z 1806/1906 VRB03KT 1/2SM FG OVC002
     FM181200 VRB03KT 1/4SM FG OVC002
     FM181700 VRB03KT 1 1/2SM BR OVC003
     FM181900 10004KT 4SM BR OVC005
     FM190200 13004KT 1SM BR OVC003=

USA.gov is the U.S. government's official web portal to all federal, state and local government web resources and services.